createdAt,value
2017-09-02T00:01:03.660Z,0
2017-09-02T00:02:13.633Z,0
2017-09-02T00:03:23.946Z,0
2017-09-02T00:04:34.209Z,0
2017-09-02T00:05:44.482Z,0
2017-09-02T00:06:55.015Z,0
2017-09-02T00:08:05.306Z,0
2017-09-02T00:09:15.277Z,0
2017-09-02T00:10:25.240Z,0
2017-09-02T00:11:35.519Z,0
2017-09-02T00:12:45.750Z,0
2017-09-02T00:13:55.706Z,0
2017-09-02T00:15:05.657Z,0
2017-09-02T00:16:15.933Z,0
2017-09-02T00:17:25.567Z,0
2017-09-02T00:18:36.122Z,0
2017-09-02T00:19:46.069Z,0
2017-09-02T00:20:56.349Z,0
2017-09-02T00:22:06.317Z,0
2017-09-02T00:23:16.610Z,0
2017-09-02T00:24:27.135Z,0
2017-09-02T00:25:37.100Z,0
2017-09-02T00:26:47.051Z,0
2017-09-02T00:27:57.029Z,0
2017-09-02T00:29:06.692Z,0
2017-09-02T00:30:17.225Z,0
2017-09-02T00:31:27.516Z,0
2017-09-02T00:32:37.800Z,0
2017-09-02T00:33:48.091Z,0
2017-09-02T00:34:58.375Z,0
2017-09-02T00:36:08.917Z,0
2017-09-02T00:37:19.233Z,0
2017-09-02T00:38:29.208Z,0
2017-09-02T00:39:39.589Z,0
2017-09-02T00:40:49.871Z,0
2017-09-02T00:41:59.776Z,0
2017-09-02T00:43:10.080Z,0
2017-09-02T00:44:20.061Z,0
2017-09-02T00:45:30.338Z,0
2017-09-02T00:46:40.620Z,0
2017-09-02T00:47:50.831Z,0
2017-09-02T00:49:01.100Z,0
2017-09-02T00:50:11.388Z,0
2017-09-02T00:51:21.682Z,0
2017-09-02T00:52:31.960Z,0
2017-09-02T00:53:42.653Z,0
2017-09-02T00:54:52.624Z,0
2017-09-02T00:56:02.902Z,0
2017-09-02T00:57:13.202Z,0
2017-09-02T00:58:23.469Z,0
2017-09-02T00:59:34.012Z,0
2017-09-02T01:00:43.965Z,0
2017-09-02T01:01:54.243Z,0
2017-09-02T01:03:03.887Z,0
2017-09-02T01:04:14.171Z,0
2017-09-02T01:05:24.405Z,0
2017-09-02T01:06:34.683Z,0
2017-09-02T01:07:44.995Z,0
2017-09-02T01:08:54.962Z,0
2017-09-02T01:10:04.949Z,0
2017-09-02T01:11:15.468Z,0
2017-09-02T01:12:25.676Z,0
2017-09-02T01:13:35.946Z,0
2017-09-02T01:14:45.911Z,0
2017-09-02T01:15:55.883Z,0
2017-09-02T01:17:06.418Z,0
2017-09-02T01:18:16.705Z,0
2017-09-02T01:19:26.970Z,0
2017-09-02T01:20:36.922Z,0
2017-09-02T01:21:45.929Z,0
2017-09-02T01:22:56.460Z,0
2017-09-02T01:24:06.750Z,0
2017-09-02T01:25:17.026Z,0
2017-09-02T01:26:27.341Z,0
2017-09-02T01:27:37.635Z,0
2017-09-02T01:28:48.152Z,0
2017-09-02T01:29:58.122Z,0
2017-09-02T01:31:08.413Z,0
2017-09-02T01:32:18.666Z,0
2017-09-02T01:33:28.947Z,0
2017-09-02T01:34:39.470Z,0
2017-09-02T01:35:49.743Z,0
2017-09-02T01:37:00.022Z,0
2017-09-02T01:38:09.979Z,0
2017-09-02T01:39:20.253Z,0
2017-09-02T01:40:30.128Z,0
2017-09-02T01:41:40.097Z,0
2017-09-02T01:42:50.397Z,0
2017-09-02T01:44:00.661Z,0
2017-09-02T01:45:10.917Z,0
2017-09-02T01:46:21.451Z,0
2017-09-02T01:47:31.719Z,0
2017-09-02T01:48:41.690Z,0
2017-09-02T01:49:51.954Z,0
2017-09-02T01:51:01.920Z,0
2017-09-02T01:52:12.430Z,0
2017-09-02T01:53:22.384Z,0
2017-09-02T01:54:32.337Z,0
2017-09-02T01:55:42.611Z,0
2017-09-02T01:56:52.564Z,0
2017-09-02T01:58:03.088Z,0
2017-09-02T01:59:13.368Z,0
2017-09-02T02:00:23.334Z,0
2017-09-02T02:01:33.617Z,0
2017-09-02T02:02:43.570Z,0
2017-09-02T02:03:53.153Z,0
2017-09-02T02:05:03.435Z,0
2017-09-02T02:06:13.395Z,0
2017-09-02T02:07:23.355Z,0
2017-09-02T02:08:33.366Z,0
2017-09-02T02:09:43.584Z,0
2017-09-02T02:10:53.855Z,0
2017-09-02T02:12:03.817Z,0
2017-09-02T02:13:14.085Z,0
2017-09-02T02:14:24.048Z,0
2017-09-02T02:15:34.571Z,0
2017-09-02T02:16:44.859Z,0
2017-09-02T02:17:55.143Z,0
2017-09-02T02:19:05.419Z,0
2017-09-02T02:20:15.376Z,0
2017-09-02T02:21:25.914Z,0
2017-09-02T02:22:35.876Z,0
2017-09-02T02:23:46.148Z,0
2017-09-02T02:24:56.440Z,0
2017-09-02T02:26:06.710Z,0
2017-09-02T02:27:16.906Z,0
2017-09-02T02:28:26.846Z,0
2017-09-02T02:29:37.126Z,0
2017-09-02T02:30:46.430Z,0
2017-09-02T02:31:56.684Z,0
2017-09-02T02:33:06.879Z,0
2017-09-02T02:34:17.149Z,0
2017-09-02T02:35:27.412Z,0
2017-09-02T02:36:37.067Z,0
2017-09-02T02:37:46.736Z,0
2017-09-02T02:38:57.265Z,0
2017-09-02T02:40:07.232Z,0
2017-09-02T02:41:17.515Z,0
2017-09-02T02:42:27.498Z,0
2017-09-02T02:43:37.796Z,0
2017-09-02T02:44:48.016Z,0
2017-09-02T02:45:57.983Z,0
2017-09-02T02:47:07.955Z,0
2017-09-02T02:48:18.240Z,0
2017-09-02T02:49:28.205Z,0
2017-09-02T02:50:38.108Z,0
2017-09-02T02:51:48.368Z,0
2017-09-02T02:52:58.320Z,0
2017-09-02T02:54:08.611Z,0
2017-09-02T02:55:18.881Z,0
2017-09-02T02:56:29.132Z,0
2017-09-02T02:57:39.104Z,0
2017-09-02T02:58:49.074Z,0
2017-09-02T02:59:59.346Z,0
2017-09-02T03:01:09.649Z,0
2017-09-02T03:02:20.193Z,0
2017-09-02T03:03:30.140Z,0
2017-09-02T03:04:40.081Z,0
2017-09-02T03:05:50.356Z,0
2017-09-02T03:07:00.319Z,0
2017-09-02T03:08:10.536Z,0
2017-09-02T03:09:20.818Z,0
2017-09-02T03:10:31.108Z,0
2017-09-02T03:11:41.171Z,0
2017-09-02T03:12:51.458Z,0
2017-09-02T03:14:01.988Z,0
2017-09-02T03:15:11.941Z,0
2017-09-02T03:16:22.219Z,0
2017-09-02T03:17:32.486Z,0
2017-09-02T03:18:42.759Z,0
2017-09-02T03:19:53.285Z,0
2017-09-02T03:21:03.557Z,0
2017-09-02T03:22:13.517Z,0
2017-09-02T03:23:23.788Z,0
2017-09-02T03:24:34.064Z,0
2017-09-02T03:25:44.573Z,0
2017-09-02T03:26:54.855Z,0
2017-09-02T03:28:05.126Z,0
2017-09-02T03:29:15.398Z,0
2017-09-02T03:30:25.680Z,0
2017-09-02T03:31:36.252Z,0
2017-09-02T03:32:46.204Z,0
2017-09-02T03:33:56.167Z,0
2017-09-02T03:35:06.132Z,0
2017-09-02T03:36:16.079Z,0
2017-09-02T03:37:26.283Z,0
2017-09-02T03:38:36.253Z,0
2017-09-02T03:39:46.518Z,0
2017-09-02T03:40:56.806Z,0
2017-09-02T03:42:07.069Z,0
2017-09-02T03:43:17.608Z,0
2017-09-02T03:44:27.877Z,0
2017-09-02T03:45:38.148Z,0
2017-09-02T03:46:47.802Z,0
2017-09-02T03:47:58.096Z,0
2017-09-02T03:49:08.314Z,0
2017-09-02T03:50:18.583Z,0
2017-09-02T03:51:28.548Z,0
2017-09-02T03:52:38.818Z,0
2017-09-02T03:53:49.087Z,0
2017-09-02T03:54:59.296Z,0
2017-09-02T03:56:09.246Z,0
2017-09-02T03:57:19.516Z,0
2017-09-02T03:58:29.481Z,0
2017-09-02T03:59:39.755Z,0
2017-09-02T04:00:50.278Z,0
2017-09-02T04:02:00.550Z,0
2017-09-02T04:03:10.812Z,0
2017-09-02T04:04:21.245Z,0
2017-09-02T04:05:31.530Z,0
2017-09-02T04:06:41.740Z,0
2017-09-02T04:07:52.014Z,0
2017-09-02T04:09:02.303Z,0
2017-09-02T04:10:12.269Z,0
2017-09-02T04:11:22.225Z,5
2017-09-02T04:12:32.126Z,5
2017-09-02T04:13:42.410Z,5
2017-09-02T04:14:52.673Z,5
2017-09-02T04:16:02.936Z,5
2017-09-02T04:17:13.200Z,5
2017-09-02T04:18:23.732Z,10
2017-09-02T04:19:33.376Z,10
2017-09-02T04:20:43.644Z,10
2017-09-02T04:21:53.923Z,15
2017-09-02T04:23:04.200Z,15
2017-09-02T04:24:14.736Z,15
2017-09-02T04:25:25.055Z,20
2017-09-02T04:26:35.321Z,20
2017-09-02T04:27:45.270Z,25
2017-09-02T04:28:55.545Z,25
2017-09-02T04:30:06.111Z,25
2017-09-02T04:31:16.070Z,30
2017-09-02T04:32:25.695Z,30
2017-09-02T04:33:35.345Z,35
2017-09-02T04:34:45.624Z,35
2017-09-02T04:35:55.520Z,40
2017-09-02T04:37:05.739Z,40
2017-09-02T04:38:16.027Z,45
2017-09-02T04:39:26.331Z,45
2017-09-02T04:40:36.313Z,50
2017-09-02T04:41:46.506Z,55
2017-09-02T04:42:56.785Z,55
2017-09-02T04:44:06.757Z,60
2017-09-02T04:45:17.027Z,65
2017-09-02T04:46:27.296Z,65
2017-09-02T04:47:37.521Z,70
2017-09-02T04:48:47.479Z,70
2017-09-02T04:49:57.435Z,75
2017-09-02T04:51:07.725Z,75
2017-09-02T04:52:17.677Z,80
2017-09-02T04:53:28.184Z,80
2017-09-02T04:54:38.141Z,85
2017-09-02T04:55:48.411Z,90
2017-09-02T04:56:58.937Z,90
2017-09-02T04:58:09.216Z,95
2017-09-02T04:59:19.743Z,95
2017-09-02T05:00:30.035Z,100
2017-09-02T05:01:40.365Z,100
2017-09-02T05:02:50.317Z,105
2017-09-02T05:04:00.279Z,110
2017-09-02T05:05:10.809Z,110
2017-09-02T05:06:21.071Z,115
2017-09-02T05:07:31.026Z,115
2017-09-02T05:08:41.292Z,115
2017-09-02T05:09:51.251Z,120
2017-09-02T05:11:01.792Z,120
2017-09-02T05:12:12.068Z,125
2017-09-02T05:13:22.341Z,125
2017-09-02T05:14:32.298Z,130
2017-09-02T05:15:42.260Z,130
2017-09-02T05:16:52.784Z,135
2017-09-02T05:18:03.062Z,135
2017-09-02T05:19:13.339Z,140
2017-09-02T05:20:23.293Z,145
2017-09-02T05:21:33.259Z,150
2017-09-02T05:22:43.799Z,155
2017-09-02T05:23:54.071Z,160
2017-09-02T05:25:04.025Z,160
2017-09-02T05:26:14.298Z,165
2017-09-02T05:27:24.572Z,170
2017-09-02T05:28:34.782Z,170
2017-09-02T05:29:45.060Z,175
2017-09-02T05:30:55.023Z,175
2017-09-02T05:32:05.285Z,180
2017-09-02T05:33:15.591Z,180
2017-09-02T05:34:26.118Z,185
2017-09-02T05:35:36.403Z,185
2017-09-02T05:36:46.681Z,190
2017-09-02T05:37:56.974Z,190
2017-09-02T05:39:07.267Z,190
2017-09-02T05:40:17.770Z,195
2017-09-02T05:41:28.050Z,195
2017-09-02T05:42:38.317Z,200
2017-09-02T05:43:47.659Z,200
2017-09-02T05:44:57.621Z,200
2017-09-02T05:46:08.148Z,205
2017-09-02T05:47:18.096Z,205
2017-09-02T05:48:27.414Z,210
2017-09-02T05:49:37.697Z,210
2017-09-02T05:50:47.020Z,210
2017-09-02T05:51:56.912Z,210
2017-09-02T05:53:06.870Z,210
2017-09-02T05:54:17.132Z,215
2017-09-02T05:55:27.426Z,215
2017-09-02T05:56:37.718Z,215
2017-09-02T05:57:54.194Z,220
2017-09-02T05:59:04.154Z,220
2017-09-02T06:00:13.791Z,220
2017-09-02T06:01:23.754Z,230
2017-09-02T06:02:33.413Z,225
2017-09-02T06:03:43.953Z,225
2017-09-02T06:04:54.213Z,230
2017-09-02T06:06:04.484Z,230
2017-09-02T06:07:14.783Z,240
2017-09-02T06:08:25.065Z,235
2017-09-02T06:09:35.277Z,240
2017-09-02T06:10:45.278Z,235
2017-09-02T06:11:55.554Z,240
2017-09-02T06:13:05.826Z,240
2017-09-02T06:14:16.100Z,240
2017-09-02T06:15:26.637Z,245
2017-09-02T06:16:36.596Z,245
2017-09-02T06:17:46.872Z,250
2017-09-02T06:18:57.140Z,245
2017-09-02T06:20:07.098Z,250
2017-09-02T06:21:17.678Z,250
2017-09-02T06:22:27.958Z,250
2017-09-02T06:23:38.236Z,250
2017-09-02T06:24:48.515Z,255
2017-09-02T06:25:58.802Z,255
2017-09-02T06:27:08.693Z,255
2017-09-02T06:28:18.981Z,255
2017-09-02T06:29:28.626Z,260
2017-09-02T06:30:38.897Z,260
2017-09-02T06:31:49.187Z,260
2017-09-02T06:32:59.408Z,265
2017-09-02T06:34:09.697Z,265
2017-09-02T06:35:19.661Z,265
2017-09-02T06:36:29.622Z,265
2017-09-02T06:37:39.568Z,270
2017-09-02T06:38:50.089Z,270
2017-09-02T06:40:00.056Z,270
2017-09-02T06:41:10.013Z,275
2017-09-02T06:42:20.319Z,275
2017-09-02T06:43:30.289Z,275
2017-09-02T06:44:40.821Z,280
2017-09-02T06:45:50.779Z,285
2017-09-02T06:47:01.058Z,285
2017-09-02T06:48:11.335Z,290
2017-09-02T06:49:21.316Z,290
2017-09-02T06:50:31.533Z,295
2017-09-02T06:51:41.822Z,295
2017-09-02T06:52:52.098Z,300
2017-09-02T06:54:02.098Z,300
2017-09-02T06:55:12.068Z,300
2017-09-02T06:56:22.596Z,305
2017-09-02T06:57:32.882Z,305
2017-09-02T06:58:43.172Z,305
2017-09-02T06:59:53.495Z,310
2017-09-02T07:01:03.143Z,310
2017-09-02T07:02:13.662Z,315
2017-09-02T07:03:23.956Z,315
2017-09-02T07:04:34.243Z,315
2017-09-02T07:05:44.529Z,315
2017-09-02T07:06:54.807Z,315
2017-09-02T07:08:05.316Z,325
2017-09-02T07:09:15.608Z,330
2017-09-02T07:10:25.901Z,325
2017-09-02T07:11:36.187Z,330
2017-09-02T07:12:46.472Z,330
2017-09-02T07:13:56.991Z,330
2017-09-02T07:15:07.288Z,330
2017-09-02T07:16:17.563Z,330
2017-09-02T07:17:27.836Z,330
2017-09-02T07:18:38.113Z,335
2017-09-02T07:19:48.342Z,335
2017-09-02T07:20:58.608Z,335
2017-09-02T07:22:08.904Z,340
2017-09-02T07:23:19.178Z,345
2017-09-02T07:24:29.462Z,350
2017-09-02T07:25:39.677Z,350
2017-09-02T07:26:49.639Z,350
2017-09-02T07:27:59.942Z,330
2017-09-02T07:29:09.898Z,360
2017-09-02T07:30:20.199Z,380
2017-09-02T07:31:30.722Z,375
2017-09-02T07:32:40.692Z,365
2017-09-02T07:33:50.651Z,360
2017-09-02T07:35:00.947Z,355
2017-09-02T07:36:10.599Z,350
2017-09-02T07:37:21.121Z,350
2017-09-02T07:38:31.618Z,360
2017-09-02T07:39:40.966Z,375
2017-09-02T07:40:50.927Z,390
2017-09-02T07:42:01.197Z,395
2017-09-02T07:43:11.716Z,390
2017-09-02T07:44:21.997Z,385
2017-09-02T07:45:31.974Z,375
2017-09-02T07:46:42.264Z,375
2017-09-02T07:47:51.907Z,370
2017-09-02T07:49:02.440Z,380
2017-09-02T07:50:12.721Z,380
2017-09-02T07:51:22.696Z,385
2017-09-02T07:52:32.979Z,385
2017-09-02T07:53:43.276Z,390
2017-09-02T07:54:53.803Z,395
2017-09-02T07:56:03.793Z,400
2017-09-02T07:57:14.067Z,395
2017-09-02T07:58:24.377Z,395
2017-09-02T07:59:34.663Z,400
2017-09-02T08:00:44.862Z,405
2017-09-02T08:01:55.155Z,405
2017-09-02T08:03:04.501Z,405
2017-09-02T08:04:14.770Z,415
2017-09-02T08:05:25.055Z,425
2017-09-02T08:06:35.272Z,430
2017-09-02T08:07:45.230Z,435
2017-09-02T08:08:55.197Z,460
2017-09-02T08:10:05.480Z,475
2017-09-02T08:11:15.450Z,490
2017-09-02T08:12:25.972Z,490
2017-09-02T08:13:35.935Z,500
2017-09-02T08:14:45.286Z,510
2017-09-02T08:15:54.931Z,510
2017-09-02T08:17:05.247Z,515
2017-09-02T08:18:15.462Z,530
2017-09-02T08:19:25.742Z,1045
2017-09-02T08:20:36.033Z,560
2017-09-02T08:21:46.301Z,575
2017-09-02T08:22:56.589Z,620
2017-09-02T08:24:06.817Z,1185
2017-09-02T08:25:17.150Z,835
2017-09-02T08:26:27.439Z,1225
2017-09-02T08:27:37.938Z,1170
2017-09-02T08:28:48.221Z,705
2017-09-02T08:29:58.438Z,665
2017-09-02T08:31:08.717Z,685
2017-09-02T08:32:18.694Z,735
2017-09-02T08:33:28.985Z,570
2017-09-02T08:34:38.969Z,585
2017-09-02T08:35:49.187Z,1260
2017-09-02T08:36:59.462Z,1305
2017-09-02T08:38:09.426Z,1315
2017-09-02T08:39:19.719Z,1355
2017-09-02T08:40:30.011Z,1365
2017-09-02T08:41:40.545Z,1420
2017-09-02T08:42:50.543Z,1375
2017-09-02T08:44:00.838Z,1435
2017-09-02T08:45:11.144Z,1440
2017-09-02T08:46:21.117Z,1420
2017-09-02T08:47:31.893Z,1380
2017-09-02T08:48:42.193Z,595
2017-09-02T08:49:52.151Z,1495
2017-09-02T08:51:02.116Z,1560
2017-09-02T08:52:12.408Z,1465
2017-09-02T08:53:23.013Z,1520
2017-09-02T08:54:32.976Z,1550
2017-09-02T08:55:42.961Z,1520
2017-09-02T08:56:53.243Z,1565
2017-09-02T08:58:03.547Z,1665
2017-09-02T08:59:14.079Z,1595
2017-09-02T09:00:24.376Z,1615
2017-09-02T09:01:34.652Z,1705
2017-09-02T09:02:44.951Z,1755
2017-09-02T09:03:55.261Z,1655
2017-09-02T09:05:05.495Z,1680
2017-09-02T09:06:15.167Z,1825
2017-09-02T09:07:25.448Z,1620
2017-09-02T09:08:35.756Z,1735
2017-09-02T09:09:46.045Z,1780
2017-09-02T09:10:56.595Z,1450
2017-09-02T09:12:06.880Z,765
2017-09-02T09:13:16.535Z,725
2017-09-02T09:14:26.531Z,725
2017-09-02T09:15:36.493Z,1190
2017-09-02T09:16:47.047Z,1425
2017-09-02T09:17:57.022Z,1840
2017-09-02T09:19:06.986Z,2045
2017-09-02T09:20:16.994Z,1850
2017-09-02T09:21:27.285Z,1815
2017-09-02T09:22:37.833Z,1835
2017-09-02T09:23:48.103Z,1845
2017-09-02T09:24:58.076Z,1880
2017-09-02T09:26:08.397Z,1910
2017-09-02T09:27:18.706Z,830
2017-09-02T09:28:29.247Z,900
2017-09-02T09:29:39.544Z,1910
2017-09-02T09:30:49.837Z,815
2017-09-02T09:32:00.136Z,930
2017-09-02T09:33:10.141Z,2145
2017-09-02T09:34:20.389Z,2120
2017-09-02T09:35:30.372Z,1985
2017-09-02T09:36:40.689Z,2005
2017-09-02T09:37:50.966Z,1495
2017-09-02T09:39:01.293Z,695
2017-09-02T09:40:11.513Z,1100
2017-09-02T09:41:21.823Z,670
2017-09-02T09:42:31.798Z,635
2017-09-02T09:43:42.092Z,630
2017-09-02T09:44:52.382Z,630
2017-09-02T09:46:02.915Z,640
2017-09-02T09:47:13.207Z,670
2017-09-02T09:48:23.515Z,770
2017-09-02T09:49:33.484Z,1785
2017-09-02T09:50:43.771Z,595
2017-09-02T09:51:53.724Z,585
2017-09-02T09:53:03.700Z,580
2017-09-02T09:54:13.678Z,560
2017-09-02T09:55:23.980Z,595
2017-09-02T09:56:34.266Z,580
2017-09-02T09:57:44.802Z,815
2017-09-02T09:58:54.770Z,1950
2017-09-02T10:00:04.444Z,2310
2017-09-02T10:01:14.420Z,1560
2017-09-02T10:02:24.691Z,2595
2017-09-02T10:03:34.955Z,2400
2017-09-02T10:04:45.243Z,2290
2017-09-02T10:05:54.897Z,2400
2017-09-02T10:07:05.193Z,2320
2017-09-02T10:08:15.164Z,2315
2017-09-02T10:09:25.395Z,2400
2017-09-02T10:10:35.361Z,2365
2017-09-02T10:11:44.705Z,2435
2017-09-02T10:12:55.004Z,2380
2017-09-02T10:14:05.307Z,2465
2017-09-02T10:15:15.836Z,2445
2017-09-02T10:16:25.820Z,1645
2017-09-02T10:17:35.798Z,2585
2017-09-02T10:18:46.091Z,2635
2017-09-02T10:19:56.395Z,1085
2017-09-02T10:21:06.625Z,2415
2017-09-02T10:22:16.921Z,2545
2017-09-02T10:23:27.225Z,2570
2017-09-02T10:24:37.209Z,2515
2017-09-02T10:25:46.871Z,2615
2017-09-02T10:26:57.099Z,2665
2017-09-02T10:28:07.082Z,2655
2017-09-02T10:29:17.379Z,2625
2017-09-02T10:30:27.690Z,2620
2017-09-02T10:31:37.988Z,2635
2017-09-02T10:32:48.537Z,2750
2017-09-02T10:33:58.839Z,2790
2017-09-02T10:35:09.124Z,2705
2017-09-02T10:36:19.420Z,2770
2017-09-02T10:37:29.084Z,2780
2017-09-02T10:38:39.672Z,1690
2017-09-02T10:39:49.647Z,1555
2017-09-02T10:40:59.626Z,1315
2017-09-02T10:42:09.604Z,865
2017-09-02T10:43:19.598Z,970
2017-09-02T10:44:30.138Z,2015
2017-09-02T10:45:40.440Z,1005
2017-09-02T10:46:50.744Z,660
2017-09-02T10:48:01.035Z,615
2017-09-02T10:49:11.321Z,570
2017-09-02T10:50:21.871Z,530
2017-09-02T10:51:32.205Z,505
2017-09-02T10:52:42.493Z,485
2017-09-02T10:53:52.781Z,485
2017-09-02T10:55:03.075Z,500
2017-09-02T10:56:13.624Z,515
2017-09-02T10:57:23.592Z,525
2017-09-02T10:58:33.861Z,535
2017-09-02T10:59:43.522Z,545
2017-09-02T11:00:53.812Z,560
2017-09-02T11:02:04.363Z,580
2017-09-02T11:03:14.350Z,605
2017-09-02T11:04:24.345Z,625
2017-09-02T11:05:34.640Z,650
2017-09-02T11:06:44.615Z,675
2017-09-02T11:07:55.146Z,695
2017-09-02T11:09:05.121Z,720
2017-09-02T11:10:15.408Z,730
2017-09-02T11:11:25.693Z,745
2017-09-02T11:12:35.992Z,760
2017-09-02T11:13:46.547Z,790
2017-09-02T11:14:56.502Z,800
2017-09-02T11:16:06.771Z,825
2017-09-02T11:17:16.425Z,860
2017-09-02T11:18:26.723Z,895
2017-09-02T11:19:36.939Z,925
2017-09-02T11:20:47.224Z,965
2017-09-02T11:21:57.186Z,1015
2017-09-02T11:23:07.146Z,1080
2017-09-02T11:24:17.445Z,1220
2017-09-02T11:25:27.988Z,1440
2017-09-02T11:26:37.958Z,1750
2017-09-02T11:27:48.247Z,2665
2017-09-02T11:28:58.526Z,3265
2017-09-02T11:30:08.812Z,2565
2017-09-02T11:31:19.052Z,3545
2017-09-02T11:32:29.344Z,3015
2017-09-02T11:33:39.647Z,1805
2017-09-02T11:34:49.955Z,1510
2017-09-02T11:35:59.926Z,1575
2017-09-02T11:37:10.479Z,2070
2017-09-02T11:38:20.745Z,1880
2017-09-02T11:39:30.748Z,1670
2017-09-02T11:40:40.722Z,1455
2017-09-02T11:41:51.023Z,1430
2017-09-02T11:43:01.578Z,1480
2017-09-02T11:44:11.231Z,1640
2017-09-02T11:45:21.526Z,1705
2017-09-02T11:46:31.500Z,1820
2017-09-02T11:47:41.781Z,2200
2017-09-02T11:48:52.318Z,2010
2017-09-02T11:50:02.324Z,1820
2017-09-02T11:51:12.601Z,2070
2017-09-02T11:52:22.909Z,3870
2017-09-02T11:53:33.207Z,3665
2017-09-02T11:54:43.745Z,2955
2017-09-02T11:55:54.031Z,2525
2017-09-02T11:57:04.024Z,2605
2017-09-02T11:58:14.315Z,2025
2017-09-02T11:59:24.596Z,1910
2017-09-02T12:00:35.143Z,1725
2017-09-02T12:01:45.444Z,1615
2017-09-02T12:02:55.727Z,1585
2017-09-02T12:04:05.717Z,1605
2017-09-02T12:05:16.038Z,1685
2017-09-02T12:06:26.246Z,1815
2017-09-02T12:07:36.563Z,1955
2017-09-02T12:08:46.866Z,1710
2017-09-02T12:09:57.148Z,1560
2017-09-02T12:11:07.444Z,1455
2017-09-02T12:12:18.006Z,1405
2017-09-02T12:13:27.977Z,1325
2017-09-02T12:14:38.267Z,1280
2017-09-02T12:15:48.579Z,1285
2017-09-02T12:16:58.234Z,1300
2017-09-02T12:18:08.774Z,1420
2017-09-02T12:19:18.763Z,1510
2017-09-02T12:20:29.079Z,1555
2017-09-02T12:21:39.371Z,1695
2017-09-02T12:22:49.665Z,1640
2017-09-02T12:23:59.887Z,1645
2017-09-02T12:25:10.192Z,1635
2017-09-02T12:26:20.484Z,1725
2017-09-02T12:27:30.761Z,1685
2017-09-02T12:28:40.750Z,1530
2017-09-02T12:29:51.278Z,1475
2017-09-02T12:31:01.599Z,1490
2017-09-02T12:32:11.908Z,1560
2017-09-02T12:33:21.886Z,1735
2017-09-02T12:34:32.181Z,1870
2017-09-02T12:35:42.728Z,1970
2017-09-02T12:36:52.713Z,1830
2017-09-02T12:38:02.688Z,2640
2017-09-02T12:39:12.325Z,2280
2017-09-02T12:40:22.616Z,1825
2017-09-02T12:41:32.849Z,1745
2017-09-02T12:42:42.824Z,2000
2017-09-02T12:43:52.822Z,1995
2017-09-02T12:45:02.812Z,1920
2017-09-02T12:46:13.114Z,1605
2017-09-02T12:47:23.646Z,1690
2017-09-02T12:48:33.961Z,1605
2017-09-02T12:49:43.937Z,1495
2017-09-02T12:50:54.222Z,1440
2017-09-02T12:52:04.540Z,1360
2017-09-02T12:53:15.080Z,1310
2017-09-02T12:54:25.377Z,1275
2017-09-02T12:55:35.352Z,1270
2017-09-02T12:56:45.341Z,1300
2017-09-02T12:57:55.649Z,1330
2017-09-02T12:59:06.189Z,1395
2017-09-02T13:00:16.148Z,1490
2017-09-02T13:01:26.109Z,1560
2017-09-02T13:02:36.074Z,1515
2017-09-02T13:03:46.349Z,1515
2017-09-02T13:04:56.570Z,1555
2017-09-02T13:06:06.534Z,1595
2017-09-02T13:07:16.545Z,1660
2017-09-02T13:08:26.860Z,1665
2017-09-02T13:09:37.133Z,1570
2017-09-02T13:10:47.687Z,1390
2017-09-02T13:11:57.652Z,1355
2017-09-02T13:13:07.928Z,1375
2017-09-02T13:14:18.232Z,1685
2017-09-02T13:15:28.545Z,1630
2017-09-02T13:16:38.773Z,1435
2017-09-02T13:17:49.044Z,1335
2017-09-02T13:18:59.334Z,1350
2017-09-02T13:20:09.309Z,1395
2017-09-02T13:21:19.613Z,1440
2017-09-02T13:22:29.829Z,1535
2017-09-02T13:23:40.120Z,2125
2017-09-02T13:24:50.415Z,2470
2017-09-02T13:26:00.718Z,3075
2017-09-02T13:27:11.019Z,2870
2017-09-02T13:28:21.552Z,3395
2017-09-02T13:29:31.846Z,2450
2017-09-02T13:30:41.826Z,1340
2017-09-02T13:31:52.134Z,1435
2017-09-02T13:33:02.127Z,2065
2017-09-02T13:34:12.350Z,1825
2017-09-02T13:35:22.002Z,1505
2017-09-02T13:36:32.290Z,1810
2017-09-02T13:37:42.272Z,1485
2017-09-02T13:38:52.591Z,1605
2017-09-02T13:40:02.506Z,1555
2017-09-02T13:41:12.811Z,1395
2017-09-02T13:42:22.787Z,1440
2017-09-02T13:43:33.068Z,1385
2017-09-02T13:44:43.358Z,1415
2017-09-02T13:45:53.594Z,1445
2017-09-02T13:47:03.564Z,1465
2017-09-02T13:48:13.861Z,1440
2017-09-02T13:49:23.853Z,1430
2017-09-02T13:50:34.148Z,1420
2017-09-02T13:51:44.698Z,1715
2017-09-02T13:52:54.690Z,1895
2017-09-02T13:54:04.347Z,1985
2017-09-02T13:55:14.658Z,2640
2017-09-02T13:56:25.187Z,3455
2017-09-02T13:57:35.735Z,3880
2017-09-02T13:58:46.003Z,3850
2017-09-02T13:59:56.289Z,3945
2017-09-02T14:01:05.947Z,4060
2017-09-02T14:02:16.244Z,4105
2017-09-02T14:03:26.786Z,3605
2017-09-02T14:04:37.081Z,2340
2017-09-02T14:05:47.378Z,2655
2017-09-02T14:06:57.383Z,3480
2017-09-02T14:08:07.056Z,3400
2017-09-02T14:09:17.614Z,3765
2017-09-02T14:10:27.938Z,3550
2017-09-02T14:11:37.615Z,2815
2017-09-02T14:12:47.931Z,2505
2017-09-02T14:13:58.253Z,2165
2017-09-02T14:15:08.474Z,2460
2017-09-02T14:16:18.780Z,2590
2017-09-02T14:17:28.771Z,2800
2017-09-02T14:18:38.744Z,3390
2017-09-02T14:19:49.026Z,3405
2017-09-02T14:20:59.578Z,3445
2017-09-02T14:22:09.896Z,3390
2017-09-02T14:23:20.188Z,2635
2017-09-02T14:24:30.179Z,1140
2017-09-02T14:25:40.472Z,1430
2017-09-02T14:26:50.690Z,1020
2017-09-02T14:28:00.355Z,955
2017-09-02T14:29:10.642Z,910
2017-09-02T14:30:20.936Z,875
2017-09-02T14:31:31.250Z,950
2017-09-02T14:32:41.804Z,2345
2017-09-02T14:33:52.093Z,2600
2017-09-02T14:35:02.402Z,2670
2017-09-02T14:36:12.067Z,2520
2017-09-02T14:37:22.056Z,2285
2017-09-02T14:38:32.608Z,2515
2017-09-02T14:39:42.890Z,2680
2017-09-02T14:40:53.185Z,2795
2017-09-02T14:42:03.146Z,2800
2017-09-02T14:43:13.116Z,2800
2017-09-02T14:44:23.672Z,2815
2017-09-02T14:45:33.982Z,2740
2017-09-02T14:46:43.956Z,2685
2017-09-02T14:47:54.251Z,3040
2017-09-02T14:49:04.563Z,2840
2017-09-02T14:50:15.113Z,2775
2017-09-02T14:51:25.411Z,2750
2017-09-02T14:52:35.384Z,1935
2017-09-02T14:53:45.350Z,1305
2017-09-02T14:54:55.348Z,1530
2017-09-02T14:56:05.905Z,1230
2017-09-02T14:57:16.209Z,970
2017-09-02T14:58:26.512Z,885
2017-09-02T14:59:36.800Z,915
2017-09-02T15:00:47.091Z,1125
2017-09-02T15:01:57.641Z,1395
2017-09-02T15:03:07.927Z,1560
2017-09-02T15:04:17.580Z,1015
2017-09-02T15:05:27.861Z,930
2017-09-02T15:06:38.160Z,1030
2017-09-02T15:07:48.700Z,1325
2017-09-02T15:08:58.984Z,850
2017-09-02T15:10:09.294Z,1400
2017-09-02T15:11:19.586Z,1035
2017-09-02T15:12:29.869Z,715
2017-09-02T15:13:40.401Z,720
2017-09-02T15:14:50.711Z,1150
2017-09-02T15:16:00.998Z,835
2017-09-02T15:17:10.974Z,900
2017-09-02T15:18:20.939Z,1290
2017-09-02T15:19:31.152Z,1650
2017-09-02T15:20:41.450Z,755
2017-09-02T15:21:51.750Z,615
2017-09-02T15:23:02.058Z,575
2017-09-02T15:24:12.365Z,580
2017-09-02T15:25:22.929Z,590
2017-09-02T15:26:32.602Z,545
2017-09-02T15:27:42.578Z,485
2017-09-02T15:28:52.879Z,480
2017-09-02T15:30:02.528Z,480
2017-09-02T15:31:12.756Z,485
2017-09-02T15:32:23.036Z,465
2017-09-02T15:33:32.996Z,470
2017-09-02T15:34:43.298Z,495
2017-09-02T15:35:53.617Z,495
2017-09-02T15:37:03.522Z,515
2017-09-02T15:38:13.479Z,550
2017-09-02T15:39:23.748Z,585
2017-09-02T15:40:33.098Z,630
2017-09-02T15:41:43.396Z,635
2017-09-02T15:42:53.695Z,1020
2017-09-02T15:44:03.985Z,1845
2017-09-02T15:45:14.276Z,1850
2017-09-02T15:46:24.560Z,1760
2017-09-02T15:47:34.201Z,1705
2017-09-02T15:48:44.735Z,1625
2017-09-02T15:49:55.042Z,1645
2017-09-02T15:51:05.326Z,1285
2017-09-02T15:52:15.280Z,1060
2017-09-02T15:53:25.560Z,600
2017-09-02T15:54:35.753Z,570
2017-09-02T15:55:46.033Z,1155
2017-09-02T15:56:56.317Z,580
2017-09-02T15:58:06.297Z,580
2017-09-02T15:59:15.957Z,555
2017-09-02T16:00:26.523Z,565
2017-09-02T16:01:36.810Z,1155
2017-09-02T16:02:47.112Z,560
2017-09-02T16:03:57.399Z,580
2017-09-02T16:05:07.692Z,1105
2017-09-02T16:06:18.224Z,625
2017-09-02T16:07:28.503Z,560
2017-09-02T16:08:38.798Z,535
2017-09-02T16:09:49.110Z,520
2017-09-02T16:10:59.102Z,515
2017-09-02T16:12:09.619Z,495
2017-09-02T16:13:19.604Z,460
2017-09-02T16:14:29.894Z,400